Time;durP1;ratioP1;P1;durP2;ratioP2;P2;SDS_P1;SDS_P2;PMS_P1;PMS_P2;Temp;Humidity;BMP_temperature;BMP_pressure;BME280_temperature;BME280_humidity;BME280_pressure;Samples;Min_cycle;Max_cycle;Signal;HPM_P1;HPM_P2
2022/01/01 00:01:30;;;;;;;45.10;35.80;;;9.80;72.00;;;;;;4990807;28;20783;-82
2022/01/01 00:03:56;;;;;;;38.10;32.50;;;9.80;72.70;;;;;;4990821;28;20413;-82
2022/01/01 00:06:21;;;;;;;45.50;36.63;;;9.80;72.60;;;;;;4990377;28;20214;-82
2022/01/01 00:08:47;;;;;;;34.07;24.63;;;9.80;73.00;;;;;;4988513;28;20186;-82
2022/01/01 00:11:13;;;;;;;21.50;16.53;;;9.80;72.70;;;;;;4989714;28;20247;-83
2022/01/01 00:13:39;;;;;;;20.77;18.70;;;9.90;72.10;;;;;;4990364;28;20174;-82
2022/01/01 00:16:11;;;;;;;20.60;18.40;;;9.90;72.20;;;;;;4990047;28;20182;-82
2022/01/01 00:18:37;;;;;;;17.60;14.30;;;9.90;71.00;;;;;;4990454;28;20440;-83
2022/01/01 00:21:05;;;;;;;28.57;20.93;;;10.00;71.10;;;;;;4990409;28;20418;-83
2022/01/01 00:23:30;;;;;;;42.27;37.90;;;10.00;71.10;;;;;;4991715;28;20178;-83
2022/01/01 00:25:56;;;;;;;39.67;30.03;;;10.00;71.10;;;;;;4991423;28;20464;-82
2022/01/01 00:28:22;;;;;;;36.67;27.17;;;10.00;71.10;;;;;;4992288;28;20643;-85
2022/01/01 00:30:47;;;;;;;16.20;13.40;;;10.00;70.10;;;;;;4992556;28;20662;-85
2022/01/01 00:33:14;;;;;;;14.40;12.93;;;10.10;69.30;;;;;;4992345;28;20237;-86
2022/01/01 00:35:40;;;;;;;22.30;18.73;;;10.20;67.90;;;;;;4992528;28;20585;-83
2022/01/01 00:38:06;;;;;;;12.47;9.03;;;10.30;67.20;;;;;;4989954;28;20421;-82
2022/01/01 00:40:32;;;;;;;11.33;9.40;;;10.40;67.00;;;;;;4989986;28;20421;-82
2022/01/01 00:42:58;;;;;;;10.97;8.17;;;10.50;66.30;;;;;;4989756;28;20421;-83
2022/01/01 00:45:23;;;;;;;9.77;8.27;;;10.50;65.50;;;;;;4989992;28;20232;-83
2022/01/01 00:47:49;;;;;;;16.67;9.97;;;10.50;65.80;;;;;;4989925;28;20289;-83
2022/01/01 00:50:15;;;;;;;10.43;8.13;;;10.60;66.00;;;;;;4989855;28;20177;-83
2022/01/01 00:52:42;;;;;;;10.00;8.27;;;10.60;64.30;;;;;;4990174;28;20361;-83
2022/01/01 00:55:08;;;;;;;13.07;8.80;;;10.60;64.50;;;;;;4991175;28;20525;-82
2022/01/01 00:57:34;;;;;;;13.80;11.60;;;10.60;66.20;;;;;;4990811;28;20782;-82
2022/01/01 01:00:01;;;;;;;10.50;8.23;;;10.60;65.90;;;;;;4993133;28;20413;-85
2022/01/01 01:02:27;;;;;;;12.67;10.33;;;10.70;66.00;;;;;;4993709;28;20210;-85
2022/01/01 01:04:52;;;;;;;15.33;12.47;;;10.60;66.40;;;;;;4994280;28;20496;-85
2022/01/01 01:07:18;;;;;;;15.83;12.23;;;10.60;66.70;;;;;;4996761;28;20182;-85
2022/01/01 01:09:44;;;;;;;16.03;13.10;;;10.60;65.20;;;;;;4997875;28;20174;-85
2022/01/01 01:12:10;;;;;;;16.17;12.47;;;10.60;66.70;;;;;;4995161;28;20180;-85
2022/01/01 01:14:40;;;;;;;19.43;12.27;;;10.60;65.80;;;;;;4995224;28;20563;-84
2022/01/01 01:17:07;;;;;;;13.83;10.60;;;10.60;65.60;;;;;;4994420;28;20421;-85
2022/01/01 01:19:33;;;;;;;14.83;10.37;;;10.60;64.80;;;;;;4995136;28;20413;-85
2022/01/01 01:21:59;;;;;;;14.57;12.93;;;10.60;65.40;;;;;;4994648;28;20433;-85
2022/01/01 01:24:25;;;;;;;15.90;14.20;;;10.60;66.30;;;;;;4994299;28;20185;-85
2022/01/01 01:26:53;;;;;;;15.00;13.30;;;10.60;65.00;;;;;;4993958;28;20265;-85
2022/01/01 01:29:19;;;;;;;15.37;13.90;;;10.60;65.30;;;;;;4993301;28;20946;-85
2022/01/01 01:31:46;;;;;;;14.00;11.63;;;10.60;65.50;;;;;;4993523;28;20413;-83
2022/01/01 01:34:12;;;;;;;18.00;11.40;;;10.60;66.70;;;;;;4993813;28;20424;-86
2022/01/01 01:36:38;;;;;;;15.13;11.93;;;10.50;65.60;;;;;;4993093;28;20421;-85
2022/01/01 01:39:05;;;;;;;14.33;12.03;;;10.50;66.20;;;;;;4993822;28;20424;-85
2022/01/01 01:41:31;;;;;;;17.37;12.70;;;10.50;66.60;;;;;;4993749;28;20265;-85
2022/01/01 01:43:58;;;;;;;15.23;12.10;;;10.60;67.10;;;;;;4992238;28;20429;-85
2022/01/01 01:46:26;;;;;;;16.97;12.10;;;10.50;66.10;;;;;;4992842;28;20465;-85
2022/01/01 01:48:51;;;;;;;19.53;14.60;;;10.50;67.10;;;;;;4993919;28;20429;-85
2022/01/01 01:51:17;;;;;;;16.73;15.00;;;10.50;66.60;;;;;;4992943;28;20421;-85
2022/01/01 01:53:43;;;;;;;17.10;11.70;;;10.50;65.60;;;;;;4992696;28;20170;-85
2022/01/01 01:56:09;;;;;;;15.23;11.60;;;10.50;66.00;;;;;;4993055;28;20185;-85
2022/01/01 01:58:35;;;;;;;11.63;9.80;;;10.50;67.40;;;;;;4993464;28;20189;-86
2022/01/01 02:01:24;;;;;;;16.20;10.90;;;10.50;66.40;;;;;;4993390;28;20432;-84
2022/01/01 02:03:48;;;;;;;13.20;10.27;;;10.60;66.70;;;;;;4992377;28;20479;-85
2022/01/01 02:06:15;;;;;;;15.73;11.17;;;10.60;67.50;;;;;;4991879;28;20472;-85
2022/01/01 02:08:41;;;;;;;15.73;14.17;;;10.60;66.80;;;;;;4992140;28;20467;-85
2022/01/01 02:11:06;;;;;;;13.60;12.30;;;10.60;67.30;;;;;;4991743;28;20421;-85
2022/01/01 02:13:38;;;;;;;12.20;9.57;;;10.60;66.90;;;;;;4992853;28;20166;-85
2022/01/01 02:18:51;;;;;;;11.10;9.93;;;10.50;66.90;;;;;;4993763;28;20460;-86
2022/01/01 02:21:17;;;;;;;18.60;12.67;;;10.50;67.90;;;;;;4993578;28;20426;-84
2022/01/01 02:23:45;;;;;;;11.23;9.97;;;10.50;67.40;;;;;;4992702;28;20413;-85
2022/01/01 02:26:13;;;;;;;15.30;13.60;;;10.50;67.30;;;;;;4992982;28;20465;-84
2022/01/01 02:28:47;;;;;;;14.17;12.30;;;10.50;67.00;;;;;;4989287;28;20836;-82
2022/01/01 02:31:14;;;;;;;11.03;9.93;;;10.60;67.10;;;;;;5005978;28;20424;-81
2022/01/01 02:33:41;;;;;;;12.17;10.90;;;10.60;66.80;;;;;;5008904;28;20416;-82
2022/01/01 02:36:07;;;;;;;11.63;10.40;;;10.60;66.10;;;;;;5008919;28;20424;-82
2022/01/01 02:38:34;;;;;;;10.63;8.53;;;10.60;67.20;;;;;;5011234;28;20408;-85
2022/01/01 02:40:59;;;;;;;11.43;10.23;;;10.50;67.10;;;;;;5013163;28;20847;-84
2022/01/01 02:43:25;;;;;;;14.43;12.93;;;10.50;69.30;;;;;;5012095;28;20458;-84
2022/01/01 02:45:51;;;;;;;13.90;11.20;;;10.40;70.20;;;;;;5010853;28;20468;-84
2022/01/01 02:48:17;;;;;;;13.77;9.47;;;10.40;69.00;;;;;;5010638;28;20417;-85
2022/01/01 02:50:43;;;;;;;15.30;11.30;;;10.40;68.80;;;;;;5009125;28;20424;-83
2022/01/01 02:53:16;;;;;;;16.90;10.67;;;10.40;69.20;;;;;;5007689;28;20551;-82
2022/01/01 02:55:45;;;;;;;14.13;12.47;;;10.40;69.70;;;;;;5006698;28;20420;-82
2022/01/01 02:58:12;;;;;;;13.60;9.53;;;10.40;69.20;;;;;;5007730;28;20427;-82
2022/01/01 03:00:41;;;;;;;14.95;12.77;;;10.40;69.70;;;;;;5009619;28;20843;-85
2022/01/01 03:03:07;;;;;;;12.30;11.00;;;10.40;69.40;;;;;;5012016;28;20227;-85
2022/01/01 03:05:33;;;;;;;14.77;12.00;;;10.40;69.80;;;;;;5008594;28;20506;-82
2022/01/01 03:07:59;;;;;;;12.73;11.40;;;10.40;70.20;;;;;;5007220;28;20178;-82
2022/01/01 03:10:25;;;;;;;12.53;7.97;;;10.40;69.30;;;;;;5007256;28;20420;-83
2022/01/01 03:12:50;;;;;;;11.37;10.23;;;10.40;69.00;;;;;;5007095;28;20427;-82
2022/01/01 03:15:16;;;;;;;10.20;7.87;;;10.40;69.50;;;;;;5008136;28;20586;-83
2022/01/01 03:17:42;;;;;;;11.87;10.67;;;10.40;69.50;;;;;;5007535;28;20570;-83
2022/01/01 03:20:08;;;;;;;9.40;8.00;;;10.30;68.50;;;;;;5007130;28;20588;-82
2022/01/01 03:22:34;;;;;;;8.80;7.70;;;10.30;68.60;;;;;;5007055;28;20169;-83
2022/01/01 03:25:00;;;;;;;13.23;10.60;;;10.40;68.80;;;;;;5006688;28;21038;-82
2022/01/01 03:27:25;;;;;;;12.83;11.23;;;10.40;69.10;;;;;;5007494;28;20182;-82
2022/01/01 03:29:51;;;;;;;12.10;10.80;;;10.40;68.00;;;;;;5006897;28;20634;-81
2022/01/01 03:32:17;;;;;;;11.30;8.67;;;10.40;67.60;;;;;;5006700;28;20271;-81
2022/01/01 03:34:42;;;;;;;9.40;8.07;;;10.40;67.60;;;;;;5006712;28;20489;-82
2022/01/01 03:37:08;;;;;;;9.47;7.50;;;10.40;67.40;;;;;;5006960;28;20188;-82
2022/01/01 03:39:34;;;;;;;10.70;8.00;;;10.40;67.70;;;;;;5006683;28;20189;-82
2022/01/01 03:42:00;;;;;;;11.63;8.90;;;10.40;66.90;;;;;;5007603;28;20443;-81
2022/01/01 03:44:26;;;;;;;10.40;8.47;;;10.40;66.70;;;;;;5006962;28;20237;-82
2022/01/01 03:46:56;;;;;;;12.33;8.60;;;10.40;66.70;;;;;;5006250;28;20826;-81
2022/01/01 03:49:22;;;;;;;14.73;12.20;;;10.40;66.90;;;;;;5006802;28;20264;-82
2022/01/01 03:51:47;;;;;;;10.07;8.13;;;10.40;66.60;;;;;;5006711;28;20559;-82
2022/01/01 03:54:14;;;;;;;11.50;8.90;;;10.40;67.00;;;;;;5006859;28;20181;-82
2022/01/01 03:56:40;;;;;;;12.97;8.40;;;10.40;67.50;;;;;;5006655;28;20641;-82
2022/01/01 03:59:06;;;;;;;12.97;8.70;;;10.40;67.20;;;;;;5007902;28;20424;-82
2022/01/01 04:01:31;;;;;;;10.30;8.00;;;10.50;67.30;;;;;;5006971;28;20694;-84
2022/01/01 04:03:57;;;;;;;13.40;12.10;;;10.50;66.40;;;;;;5006781;28;20630;-83
2022/01/01 04:06:23;;;;;;;13.83;12.43;;;10.50;66.80;;;;;;5007140;28;20763;-83
2022/01/01 04:08:48;;;;;;;12.10;10.80;;;10.50;67.50;;;;;;5010710;28;20180;-82
2022/01/01 04:11:14;;;;;;;10.83;7.97;;;10.50;67.10;;;;;;5010635;28;20201;-83
2022/01/01 04:13:39;;;;;;;13.63;9.60;;;10.50;67.20;;;;;;5010316;28;20184;-82
2022/01/01 04:16:06;;;;;;;13.20;8.83;;;10.50;68.20;;;;;;5010460;28;20635;-82
2022/01/01 04:18:38;;;;;;;12.37;9.47;;;10.50;67.40;;;;;;5010504;28;20593;-82
2022/01/01 04:21:09;;;;;;;13.07;8.47;;;10.50;68.10;;;;;;5010437;28;20430;-83
2022/01/01 04:23:35;;;;;;;12.40;9.10;;;10.40;67.50;;;;;;5010147;28;20420;-83
2022/01/01 04:26:01;;;;;;;11.03;9.10;;;10.40;67.40;;;;;;5012001;28;20463;-82
2022/01/01 04:28:27;;;;;;;11.27;8.50;;;10.40;67.30;;;;;;5010207;28;20427;-82
2022/01/01 04:30:52;;;;;;;13.73;10.43;;;10.40;66.50;;;;;;5010198;28;20208;-82
2022/01/01 04:33:18;;;;;;;15.37;9.70;;;10.50;66.60;;;;;;5011924;28;20642;-86
2022/01/01 04:35:44;;;;;;;14.20;9.23;;;10.40;67.30;;;;;;5012968;28;20177;-87
2022/01/01 04:38:23;;;;;;;12.70;11.40;;;10.50;66.60;;;;;;5012410;28;20177;-86
2022/01/01 04:40:51;;;;;;;15.43;12.37;;;10.50;66.60;;;;;;5012498;28;20416;-82
2022/01/01 04:43:17;;;;;;;13.33;11.50;;;10.50;66.30;;;;;;5011462;28;20435;-82
2022/01/01 04:45:42;;;;;;;12.07;8.87;;;10.50;66.30;;;;;;5010976;28;20460;-82
2022/01/01 04:48:08;;;;;;;10.50;8.30;;;10.50;66.50;;;;;;5010716;28;20178;-81
2022/01/01 04:50:34;;;;;;;11.57;8.73;;;10.50;67.10;;;;;;5018532;28;20181;-86
2022/01/01 04:52:59;;;;;;;10.90;8.77;;;10.40;67.30;;;;;;5015903;28;20261;-86
2022/01/01 04:55:25;;;;;;;10.10;8.40;;;10.40;67.70;;;;;;5013816;28;20181;-86
2022/01/01 04:57:51;;;;;;;9.40;8.10;;;10.20;67.70;;;;;;5014062;28;20638;-87
2022/01/01 05:00:16;;;;;;;11.87;9.63;;;10.20;68.40;;;;;;5014116;28;20661;-86
2022/01/01 05:02:42;;;;;;;11.03;9.93;;;10.10;68.70;;;;;;5013947;28;20242;-85
2022/01/01 05:05:08;;;;;;;12.90;9.00;;;10.10;69.10;;;;;;5014461;28;20197;-85
2022/01/01 05:07:33;;;;;;;12.77;8.20;;;10.20;69.70;;;;;;5014083;28;20319;-86
2022/01/01 05:09:59;;;;;;;9.90;7.87;;;10.20;69.60;;;;;;5014363;28;20564;-87
2022/01/01 05:12:25;;;;;;;10.80;8.60;;;10.10;69.90;;;;;;5014511;28;20201;-86
2022/01/01 05:14:51;;;;;;;10.43;8.33;;;10.10;69.70;;;;;;5013718;28;20393;-86
2022/01/01 05:17:18;;;;;;;11.30;8.70;;;10.00;70.20;;;;;;5014526;28;20499;-86
2022/01/01 05:19:43;;;;;;;10.13;7.43;;;10.00;71.70;;;;;;5013781;28;20173;-86
2022/01/01 05:22:09;;;;;;;10.37;7.47;;;9.90;71.30;;;;;;5013665;28;20430;-82
2022/01/01 05:24:35;;;;;;;9.87;8.10;;;9.90;71.30;;;;;;5011526;28;20213;-82
2022/01/01 05:27:00;;;;;;;15.53;7.20;;;9.80;72.00;;;;;;5011638;28;20541;-82
2022/01/01 05:29:26;;;;;;;10.17;6.50;;;9.80;71.30;;;;;;5011098;28;20178;-82
2022/01/01 05:31:52;;;;;;;11.67;6.67;;;9.90;71.60;;;;;;5011457;28;20173;-82
2022/01/01 05:34:18;;;;;;;8.60;6.40;;;9.80;71.20;;;;;;5011310;28;20835;-82
2022/01/01 05:36:43;;;;;;;9.20;5.90;;;9.80;71.10;;;;;;5011041;28;20181;-81
2022/01/01 05:39:09;;;;;;;7.53;6.03;;;9.80;70.40;;;;;;5011388;28;20662;-81
2022/01/01 05:41:35;;;;;;;10.93;9.10;;;9.70;71.30;;;;;;5011111;28;20204;-82
2022/01/01 05:44:01;;;;;;;7.10;6.40;;;9.70;71.40;;;;;;5010925;28;20416;-81
2022/01/01 05:46:29;;;;;;;7.93;5.97;;;9.70;70.80;;;;;;5011261;28;20201;-82
2022/01/01 05:48:55;;;;;;;8.50;7.10;;;9.70;70.50;;;;;;5011083;28;20420;-82
2022/01/01 05:51:20;;;;;;;8.53;7.60;;;9.70;70.50;;;;;;5010603;28;20538;-82
2022/01/01 05:53:46;;;;;;;7.80;6.07;;;9.70;70.80;;;;;;5011230;28;20666;-82
2022/01/01 05:56:12;;;;;;;6.73;5.90;;;9.70;70.20;;;;;;5010735;28;20646;-81
2022/01/01 05:58:37;;;;;;;5.73;5.20;;;9.60;70.00;;;;;;5010192;28;20184;-82
2022/01/01 06:01:03;;;;;;;5.63;4.33;;;9.60;69.50;;;;;;5010259;28;20191;-81
2022/01/01 06:03:29;;;;;;;4.27;3.40;;;9.60;69.90;;;;;;5010507;28;20178;-82
2022/01/01 06:05:54;;;;;;;4.50;3.77;;;9.60;68.10;;;;;;5010802;28;20272;-82
2022/01/01 06:08:20;;;;;;;4.47;4.07;;;9.60;67.40;;;;;;5010464;28;20205;-82
2022/01/01 06:10:46;;;;;;;4.90;3.50;;;9.60;67.70;;;;;;5010882;28;20693;-82
2022/01/01 06:13:11;;;;;;;4.63;3.80;;;9.70;68.30;;;;;;5010352;28;20169;-82
2022/01/01 06:15:37;;;;;;;5.13;4.10;;;9.70;67.40;;;;;;5010575;28;20705;-82
2022/01/01 06:18:03;;;;;;;4.93;4.43;;;9.70;67.90;;;;;;5010333;28;20212;-82
2022/01/01 06:20:29;;;;;;;4.60;3.47;;;9.80;65.60;;;;;;5011698;28;20666;-82
2022/01/01 06:22:54;;;;;;;3.97;3.03;;;9.90;64.60;;;;;;5010067;28;20427;-83
2022/01/01 06:25:20;;;;;;;4.87;3.43;;;9.90;63.00;;;;;;5009963;28;20287;-82
2022/01/01 06:27:46;;;;;;;3.83;3.33;;;9.90;61.90;;;;;;5010076;28;20216;-82
2022/01/01 06:30:12;;;;;;;4.40;4.00;;;10.00;61.70;;;;;;5009586;28;20177;-82
2022/01/01 06:32:37;;;;;;;6.47;4.60;;;10.00;62.30;;;;;;5010674;28;20180;-82
2022/01/01 06:35:03;;;;;;;5.70;3.33;;;10.00;62.80;;;;;;5010865;28;20486;-82
2022/01/01 06:37:29;;;;;;;4.70;4.30;;;10.00;63.80;;;;;;5010803;28;20178;-82
2022/01/01 06:39:55;;;;;;;5.60;5.10;;;10.00;63.50;;;;;;5010546;28;20507;-83
2022/01/01 06:42:21;;;;;;;5.03;4.53;;;10.00;62.70;;;;;;5010650;28;20264;-82
2022/01/01 06:44:46;;;;;;;3.43;3.00;;;10.00;61.10;;;;;;5009691;28;20180;-83
2022/01/01 06:47:12;;;;;;;3.50;2.50;;;10.00;61.10;;;;;;5010454;28;20189;-83
2022/01/01 06:49:37;;;;;;;4.13;3.50;;;10.00;61.00;;;;;;5010116;28;20216;-82
2022/01/01 06:52:03;;;;;;;4.43;3.40;;;10.00;61.90;;;;;;5010287;28;20661;-83
2022/01/01 06:54:29;;;;;;;6.37;3.80;;;9.90;62.90;;;;;;5011178;28;20586;-83
2022/01/01 06:56:55;;;;;;;3.70;3.40;;;9.90;62.80;;;;;;5010062;28;20416;-83
2022/01/01 06:59:21;;;;;;;4.93;3.70;;;9.80;63.00;;;;;;5009643;28;20529;-83
2022/01/01 07:01:47;;;;;;;4.70;3.40;;;9.80;63.70;;;;;;5010155;28;20184;-83
2022/01/01 07:04:13;;;;;;;4.53;4.07;;;9.80;62.60;;;;;;5010023;28;20180;-83
2022/01/01 07:06:38;;;;;;;5.57;5.07;;;9.90;63.80;;;;;;5009537;28;20464;-83
2022/01/01 07:09:06;;;;;;;5.13;3.40;;;9.90;64.20;;;;;;5009479;28;20185;-83
2022/01/01 07:11:31;;;;;;;3.50;3.20;;;9.80;64.70;;;;;;5009661;28;20590;-83
2022/01/01 07:13:57;;;;;;;3.93;3.43;;;9.90;64.40;;;;;;5011084;28;20412;-83
2022/01/01 07:16:22;;;;;;;5.70;4.10;;;9.90;63.60;;;;;;5009718;28;20185;-82
2022/01/01 07:18:48;;;;;;;5.17;3.93;;;9.80;63.60;;;;;;5009868;28;20231;-83
2022/01/01 07:21:14;;;;;;;5.07;3.70;;;9.80;63.80;;;;;;5009186;28;20259;-81
2022/01/01 07:23:39;;;;;;;4.93;3.83;;;9.80;63.50;;;;;;5009821;28;20601;-82
2022/01/01 07:26:05;;;;;;;4.53;3.13;;;9.90;62.90;;;;;;5009503;28;20204;-82
2022/01/01 07:28:31;;;;;;;5.40;3.43;;;9.90;63.80;;;;;;5009585;28;20189;-82
2022/01/01 07:30:57;;;;;;;4.40;3.47;;;9.90;64.20;;;;;;5009458;28;20185;-82
2022/01/01 07:33:22;;;;;;;3.90;3.13;;;10.00;64.00;;;;;;5009690;28;20420;-82
2022/01/01 07:35:48;;;;;;;4.63;4.20;;;10.00;62.20;;;;;;5009387;28;20181;-82
2022/01/01 07:38:14;;;;;;;4.33;4.00;;;10.10;63.50;;;;;;5009773;28;20177;-82
2022/01/01 07:40:40;;;;;;;4.83;4.23;;;10.10;62.40;;;;;;5009580;28;20566;-82
2022/01/01 07:43:13;;;;;;;3.77;2.70;;;10.10;63.80;;;;;;5012620;28;20181;-82
2022/01/01 07:45:40;;;;;;;4.43;3.30;;;10.10;63.20;;;;;;5013298;28;20499;-82
2022/01/01 07:48:06;;;;;;;4.93;3.67;;;10.10;62.70;;;;;;5013342;28;20419;-82
2022/01/01 07:50:32;;;;;;;5.10;3.70;;;10.10;62.70;;;;;;5014593;28;20408;-82
2022/01/01 07:52:57;;;;;;;5.37;3.70;;;10.10;62.60;;;;;;5013189;28;20427;-83
2022/01/01 07:55:23;;;;;;;4.67;3.07;;;10.10;63.30;;;;;;5013277;28;20249;-82
2022/01/01 07:57:49;;;;;;;3.77;3.10;;;10.20;63.20;;;;;;5012829;28;20177;-83
2022/01/01 08:00:15;;;;;;;5.17;4.00;;;10.20;62.60;;;;;;5012942;28;20196;-82
2022/01/01 08:02:42;;;;;;;6.17;3.00;;;10.30;62.70;;;;;;5012859;28;20181;-82
2022/01/01 08:05:08;;;;;;;3.60;3.30;;;10.30;62.90;;;;;;5012813;28;20558;-82
2022/01/01 08:07:34;;;;;;;4.63;3.03;;;10.30;63.80;;;;;;5012638;28;20428;-82
2022/01/01 08:09:59;;;;;;;3.77;2.70;;;10.30;62.00;;;;;;5012229;28;20420;-82
2022/01/01 08:12:25;;;;;;;4.33;3.70;;;10.30;61.80;;;;;;5012557;28;20297;-82
2022/01/01 08:14:53;;;;;;;5.10;4.13;;;10.40;62.60;;;;;;5012234;28;20185;-82
2022/01/01 08:17:19;;;;;;;3.83;2.90;;;10.30;63.30;;;;;;5012741;28;20276;-82
2022/01/01 08:19:46;;;;;;;3.07;2.77;;;10.30;63.10;;;;;;5011894;28;20514;-82
2022/01/01 08:22:13;;;;;;;2.87;2.63;;;10.30;63.20;;;;;;5012683;28;20185;-82
2022/01/01 08:24:39;;;;;;;6.07;3.87;;;10.30;63.90;;;;;;5012290;28;20435;-82
2022/01/01 08:27:05;;;;;;;5.00;3.83;;;10.30;63.00;;;;;;5011989;28;20482;-82
2022/01/01 08:29:31;;;;;;;4.93;4.30;;;10.20;63.40;;;;;;5012071;28;20748;-83
2022/01/01 08:31:57;;;;;;;3.33;3.03;;;10.20;63.60;;;;;;5012399;28;20181;-81
2022/01/01 08:34:23;;;;;;;5.70;3.53;;;10.20;62.60;;;;;;5011984;28;20508;-82
2022/01/01 08:36:49;;;;;;;4.70;2.97;;;10.20;63.50;;;;;;5012426;28;20190;-82
2022/01/01 08:39:15;;;;;;;4.00;2.97;;;10.20;63.50;;;;;;5013375;28;20424;-81
2022/01/01 08:41:42;;;;;;;6.70;3.03;;;10.20;63.50;;;;;;5013413;28;20299;-82
2022/01/01 08:44:08;;;;;;;6.97;3.50;;;10.20;62.60;;;;;;5012223;28;20413;-82
2022/01/01 08:46:33;;;;;;;3.17;2.80;;;10.20;63.10;;;;;;5011776;28;21039;-82
2022/01/01 08:49:00;;;;;;;4.37;3.97;;;10.10;62.60;;;;;;5011659;28;20178;-82
2022/01/01 08:51:28;;;;;;;4.67;4.27;;;10.10;62.40;;;;;;5012126;28;20272;-82
2022/01/01 08:53:53;;;;;;;4.20;3.80;;;10.10;61.70;;;;;;5012363;28;20432;-87
2022/01/01 08:56:19;;;;;;;5.43;4.93;;;10.10;62.20;;;;;;5012374;28;20554;-87
2022/01/01 08:58:46;;;;;;;6.83;4.70;;;10.10;62.40;;;;;;5012454;28;20622;-87
2022/01/01 09:01:12;;;;;;;5.07;4.27;;;10.10;62.50;;;;;;5012252;28;20186;-89
2022/01/01 09:03:38;;;;;;;12.50;3.13;;;10.10;63.20;;;;;;5012755;28;20781;-85
2022/01/01 09:06:05;;;;;;;6.50;4.20;;;10.10;61.40;;;;;;5011871;28;20567;-86
2022/01/01 09:08:32;;;;;;;3.63;3.10;;;10.10;61.60;;;;;;5013890;28;20496;-85
2022/01/01 09:10:58;;;;;;;4.10;3.30;;;10.20;60.40;;;;;;5012328;28;20817;-85
2022/01/01 09:13:24;;;;;;;3.00;2.70;;;10.30;58.90;;;;;;5012146;28;20420;-85
2022/01/01 09:15:49;;;;;;;5.20;3.40;;;10.40;59.10;;;;;;5011883;28;20181;-85
2022/01/01 09:18:15;;;;;;;2.87;2.50;;;10.50;58.20;;;;;;5011805;28;20615;-85
2022/01/01 09:20:41;;;;;;;3.40;2.40;;;10.60;58.80;;;;;;5011644;28;20173;-85
2022/01/01 09:23:06;;;;;;;5.23;2.47;;;10.70;58.10;;;;;;5011843;28;20435;-85
2022/01/01 09:25:33;;;;;;;2.60;2.40;;;10.70;58.70;;;;;;5011704;28;20216;-85
2022/01/01 09:27:59;;;;;;;3.77;3.47;;;10.70;58.80;;;;;;5011624;28;20538;-85
2022/01/01 09:30:24;;;;;;;8.73;3.90;;;10.60;58.90;;;;;;5011545;28;20435;-85
2022/01/01 09:32:51;;;;;;;3.63;2.73;;;10.60;58.40;;;;;;5011743;28;20185;-85
2022/01/01 09:35:17;;;;;;;4.27;3.23;;;10.60;59.10;;;;;;5011493;28;20235;-85
2022/01/01 09:37:43;;;;;;;4.83;3.23;;;10.60;59.10;;;;;;5011417;28;20424;-85
2022/01/01 09:40:09;;;;;;;3.33;2.90;;;10.70;59.60;;;;;;5011445;28;20996;-85
2022/01/01 09:42:36;;;;;;;5.43;2.40;;;10.80;59.90;;;;;;5011502;28;20189;-86
2022/01/01 09:45:08;;;;;;;5.80;3.17;;;10.80;59.30;;;;;;5011826;28;20921;-86
2022/01/01 09:47:33;;;;;;;6.03;3.20;;;10.80;58.80;;;;;;5011631;28;20503;-86
2022/01/01 09:49:59;;;;;;;4.07;3.63;;;10.90;58.90;;;;;;4993674;28;20507;-86
2022/01/01 09:52:25;;;;;;;4.20;3.60;;;10.90;59.40;;;;;;4992234;28;20639;-86
2022/01/01 09:54:51;;;;;;;5.17;3.80;;;10.90;59.20;;;;;;5001043;28;20177;-86
2022/01/01 09:57:17;;;;;;;3.43;3.13;;;11.00;59.40;;;;;;5011618;28;20185;-86
2022/01/01 09:59:43;;;;;;;4.30;3.00;;;11.00;58.80;;;;;;5011509;28;20452;-86
2022/01/01 10:02:10;;;;;;;3.80;3.50;;;11.00;59.60;;;;;;5011319;28;20498;-85
2022/01/01 10:04:45;;;;;;;4.10;3.30;;;11.10;59.60;;;;;;5010076;28;20657;-85
2022/01/01 10:07:12;;;;;;;2.57;2.07;;;11.10;59.60;;;;;;5010949;28;20549;-85
2022/01/01 10:09:38;;;;;;;2.53;2.20;;;11.20;58.90;;;;;;5010319;28;20786;-86
2022/01/01 10:12:06;;;;;;;4.13;2.20;;;11.20;59.20;;;;;;5010675;28;20454;-85
2022/01/01 10:14:44;;;;;;;4.20;2.70;;;11.30;58.70;;;;;;5010716;28;20503;-86
2022/01/01 10:17:19;;;;;;;3.50;2.43;;;11.30;59.10;;;;;;5013271;28;20431;-86
2022/01/01 10:19:48;;;;;;;2.60;2.20;;;11.30;58.50;;;;;;5012021;28;20416;-86
2022/01/01 10:22:20;;;;;;;4.50;2.70;;;11.30;59.50;;;;;;5011135;28;20443;-83
2022/01/01 10:27:43;;;;;;;4.63;3.10;;;11.30;58.80;;;;;;5012496;28;20780;-85
2022/01/01 10:30:30;;;;;;;3.00;2.70;;;11.30;58.80;;;;;;5010456;28;20909;-84
2022/01/01 10:33:18;;;;;;;2.60;2.40;;;11.30;59.10;;;;;;5011408;28;20511;-85
2022/01/01 10:35:47;;;;;;;2.77;2.33;;;11.40;58.50;;;;;;5011276;28;20554;-86
2022/01/01 10:38:20;;;;;;;2.50;2.30;;;11.40;58.80;;;;;;5012079;28;20469;-85
2022/01/01 10:40:46;;;;;;;4.10;2.80;;;11.40;58.60;;;;;;5012011;28;20412;-86
2022/01/01 10:43:14;;;;;;;2.77;2.40;;;11.50;57.50;;;;;;5011546;28;20901;-85
2022/01/01 10:45:45;;;;;;;2.80;2.23;;;11.50;58.10;;;;;;5011392;28;20558;-86
2022/01/01 10:48:17;;;;;;;3.37;3.00;;;11.50;58.50;;;;;;5011140;28;20412;-85
2022/01/01 10:50:45;;;;;;;3.67;3.37;;;11.60;57.30;;;;;;5011119;28;20935;-86
2022/01/01 10:53:25;;;;;;;5.30;3.50;;;11.60;57.10;;;;;;5010667;28;20879;-85
2022/01/01 10:55:53;;;;;;;5.23;4.73;;;11.60;57.70;;;;;;5010375;28;20428;-86
2022/01/01 10:58:26;;;;;;;5.37;4.40;;;11.60;57.60;;;;;;5009767;28;20933;-86
2022/01/01 11:00:58;;;;;;;5.33;4.50;;;11.70;56.80;;;;;;5010054;28;20425;-83
2022/01/01 11:03:24;;;;;;;7.50;6.80;;;11.70;56.20;;;;;;5009524;28;20423;-85
2022/01/01 11:06:06;;;;;;;6.30;5.70;;;12.00;58.70;;;;;;5009899;28;20467;-83
2022/01/01 11:08:35;;;;;;;7.30;5.77;;;11.90;56.80;;;;;;5009759;28;20465;-84
2022/01/01 11:11:02;;;;;;;6.53;5.77;;;11.90;57.30;;;;;;5009973;28;20515;-83
2022/01/01 11:13:32;;;;;;;7.87;6.50;;;11.90;56.50;;;;;;5009813;28;20416;-83
2022/01/01 11:15:58;;;;;;;6.90;5.47;;;12.10;53.80;;;;;;5010091;28;20460;-84
2022/01/01 11:18:27;;;;;;;7.07;6.47;;;12.40;54.60;;;;;;5014813;28;20494;-84
2022/01/01 11:20:53;;;;;;;9.93;5.23;;;12.50;51.60;;;;;;5014382;28;20420;-84
2022/01/01 11:23:20;;;;;;;6.53;5.83;;;12.40;52.00;;;;;;5013519;28;20510;-83
2022/01/01 11:25:47;;;;;;;4.07;3.50;;;12.30;53.70;;;;;;5014759;28;20452;-82
2022/01/01 11:28:17;;;;;;;5.50;4.20;;;12.20;52.60;;;;;;5013722;28;20463;-82
2022/01/01 11:31:00;;;;;;;6.30;5.70;;;12.20;52.20;;;;;;5013685;28;20409;-83
2022/01/01 11:33:40;;;;;;;5.93;5.33;;;12.20;54.30;;;;;;5013538;28;20419;-83
2022/01/01 11:36:07;;;;;;;7.23;5.80;;;12.10;54.80;;;;;;5013988;28;20408;-82
2022/01/01 11:38:35;;;;;;;6.17;4.80;;;12.10;54.20;;;;;;5013860;28;20412;-82
2022/01/01 11:41:06;;;;;;;6.50;5.90;;;12.20;53.80;;;;;;5013520;28;20438;-82
2022/01/01 11:43:37;;;;;;;6.97;6.37;;;12.30;53.50;;;;;;5013533;28;20420;-83
2022/01/01 11:46:11;;;;;;;7.73;5.10;;;12.30;52.80;;;;;;5013608;28;20460;-84
2022/01/01 11:48:41;;;;;;;6.27;5.03;;;12.40;51.40;;;;;;5013532;28;20413;-82
2022/01/01 11:51:35;;;;;;;7.20;6.50;;;12.40;53.50;;;;;;5013346;28;20427;-82
2022/01/01 11:54:10;;;;;;;7.97;5.63;;;12.30;54.20;;;;;;5013697;28;20416;-83
2022/01/01 11:56:51;;;;;;;6.13;5.53;;;12.40;53.50;;;;;;5014381;28;20416;-82
2022/01/01 11:59:35;;;;;;;7.00;5.00;;;12.40;52.50;;;;;;5014421;28;20416;-83
2022/01/01 12:02:11;;;;;;;7.80;5.83;;;12.50;53.00;;;;;;4994930;28;20409;-82
2022/01/01 12:04:55;;;;;;;7.77;7.00;;;12.50;53.50;;;;;;4994899;28;20420;-82
2022/01/01 12:07:21;;;;;;;6.37;5.60;;;12.50;53.60;;;;;;4994973;28;20471;-82
2022/01/01 12:10:02;;;;;;;7.17;6.47;;;12.60;54.40;;;;;;4995164;28;20425;-82
2022/01/01 12:12:56;;;;;;;7.30;6.20;;;12.50;54.00;;;;;;4995405;28;20630;-82
2022/01/01 12:15:25;;;;;;;7.97;6.13;;;12.50;53.60;;;;;;4995101;28;20988;-83
2022/01/01 12:18:11;;;;;;;6.63;5.93;;;12.50;53.60;;;;;;4995487;28;20420;-83
2022/01/01 12:20:38;;;;;;;7.00;6.40;;;12.40;54.00;;;;;;4995415;28;20412;-84
2022/01/01 12:23:09;;;;;;;7.70;7.00;;;12.40;55.80;;;;;;4995244;28;20431;-83
2022/01/01 12:25:37;;;;;;;7.63;6.70;;;12.40;55.00;;;;;;4996578;28;20555;-83
2022/01/01 12:28:09;;;;;;;9.37;7.30;;;12.40;55.10;;;;;;4994817;28;20477;-83
2022/01/01 12:30:41;;;;;;;8.37;7.50;;;12.40;54.90;;;;;;4994979;28;20421;-83
2022/01/01 12:33:08;;;;;;;8.60;7.47;;;12.40;55.10;;;;;;4994872;28;20410;-84
2022/01/01 12:35:47;;;;;;;8.53;7.67;;;12.40;53.50;;;;;;4993465;28;20408;-84
2022/01/01 12:38:27;;;;;;;5.37;4.83;;;12.60;52.60;;;;;;4993444;28;20921;-82
2022/01/01 12:40:59;;;;;;;6.30;5.43;;;12.70;53.00;;;;;;4992621;28;20428;-83
2022/01/01 12:43:26;;;;;;;9.30;8.10;;;12.60;53.40;;;;;;4992613;28;20949;-83
2022/01/01 12:45:54;;;;;;;9.60;8.67;;;12.70;53.00;;;;;;4992684;28;21053;-82
2022/01/01 12:48:32;;;;;;;8.50;7.63;;;12.70;53.60;;;;;;4992650;28;20500;-83
2022/01/01 12:51:03;;;;;;;7.80;6.80;;;12.60;54.00;;;;;;4992471;28;20750;-83